sensor_id;sensor_type;location;lat;lon;timestamp;P1;durP1;ratioP1;P2;durP2;ratioP2
29002;SDS011;16102;57.138;-2.118;2023-10-08T00:00:26;1.52;;;0.10;;
29002;SDS011;16102;57.138;-2.118;2023-10-08T00:03:11;3.10;;;0.40;;
29002;SDS011;16102;57.138;-2.118;2023-10-08T00:05:40;3.25;;;1.02;;
29002;SDS011;16102;57.138;-2.118;2023-10-08T00:08:08;0.73;;;0.38;;
29002;SDS011;16102;57.138;-2.118;2023-10-08T00:10:36;1.42;;;0.35;;
29002;SDS011;16102;57.138;-2.118;2023-10-08T00:13:06;0.50;;;0.20;;
29002;SDS011;16102;57.138;-2.118;2023-10-08T00:15:36;0.63;;;0.20;;
29002;SDS011;16102;57.138;-2.118;2023-10-08T00:18:03;1.17;;;0.35;;
29002;SDS011;16102;57.138;-2.118;2023-10-08T00:20:38;0.50;;;0.50;;
29002;SDS011;16102;57.138;-2.118;2023-10-08T00:23:21;1.10;;;0.20;;
29002;SDS011;16102;57.138;-2.118;2023-10-08T00:25:53;2.10;;;0.50;;
29002;SDS011;16102;57.138;-2.118;2023-10-08T00:28:21;1.13;;;0.30;;
29002;SDS011;16102;57.138;-2.118;2023-10-08T00:30:49;3.78;;;0.43;;
29002;SDS011;16102;57.138;-2.118;2023-10-08T00:33:16;0.98;;;0.35;;
29002;SDS011;16102;57.138;-2.118;2023-10-08T00:35:43;0.65;;;0.35;;
29002;SDS011;16102;57.138;-2.118;2023-10-08T00:38:10;1.67;;;0.50;;
29002;SDS011;16102;57.138;-2.118;2023-10-08T00:40:47;3.28;;;0.73;;
29002;SDS011;16102;57.138;-2.118;2023-10-08T00:43:33;1.95;;;0.30;;
29002;SDS011;16102;57.138;-2.118;2023-10-08T00:46:03;1.55;;;0.60;;
29002;SDS011;16102;57.138;-2.118;2023-10-08T00:48:32;2.33;;;1.05;;
29002;SDS011;16102;57.138;-2.118;2023-10-08T00:51:02;2.83;;;0.73;;
29002;SDS011;16102;57.138;-2.118;2023-10-08T00:53:55;0.50;;;0.32;;
29002;SDS011;16102;57.138;-2.118;2023-10-08T00:56:26;3.88;;;0.50;;
29002;SDS011;16102;57.138;-2.118;2023-10-08T00:59:11;0.40;;;0.10;;
29002;SDS011;16102;57.138;-2.118;2023-10-08T01:01:43;2.25;;;0.55;;
29002;SDS011;16102;57.138;-2.118;2023-10-08T01:04:26;0.30;;;0.10;;
29002;SDS011;16102;57.138;-2.118;2023-10-08T01:06:53;2.92;;;0.85;;
29002;SDS011;16102;57.138;-2.118;2023-10-08T01:09:28;1.75;;;0.47;;
29002;SDS011;16102;57.138;-2.118;2023-10-08T01:12:11;2.15;;;0.40;;
29002;SDS011;16102;57.138;-2.118;2023-10-08T01:14:49;2.95;;;0.43;;
29002;SDS011;16102;57.138;-2.118;2023-10-08T01:17:23;0.88;;;0.30;;
29002;SDS011;16102;57.138;-2.118;2023-10-08T01:19:53;1.23;;;0.30;;
29002;SDS011;16102;57.138;-2.118;2023-10-08T01:22:26;2.53;;;1.27;;
29002;SDS011;16102;57.138;-2.118;2023-10-08T01:24:56;1.13;;;0.63;;
29002;SDS011;16102;57.138;-2.118;2023-10-08T01:27:29;1.55;;;0.30;;
29002;SDS011;16102;57.138;-2.118;2023-10-08T01:30:01;2.78;;;0.32;;
29002;SDS011;16102;57.138;-2.118;2023-10-08T01:32:44;1.58;;;0.30;;
29002;SDS011;16102;57.138;-2.118;2023-10-08T01:35:12;0.88;;;0.40;;
29002;SDS011;16102;57.138;-2.118;2023-10-08T01:37:58;0.68;;;0.38;;
29002;SDS011;16102;57.138;-2.118;2023-10-08T01:40:27;0.80;;;0.40;;
29002;SDS011;16102;57.138;-2.118;2023-10-08T01:42:56;1.23;;;0.93;;
29002;SDS011;16102;57.138;-2.118;2023-10-08T01:45:26;2.25;;;0.93;;
29002;SDS011;16102;57.138;-2.118;2023-10-08T01:47:53;1.45;;;0.40;;
29002;SDS011;16102;57.138;-2.118;2023-10-08T01:50:21;0.98;;;0.35;;
29002;SDS011;16102;57.138;-2.118;2023-10-08T14:52:24;6.50;;;1.35;;
29002;SDS011;16102;57.138;-2.118;2023-10-08T14:54:52;1.33;;;0.52;;
29002;SDS011;16102;57.138;-2.118;2023-10-08T14:57:19;1.65;;;0.63;;
29002;SDS011;16102;57.138;-2.118;2023-10-08T14:59:45;2.03;;;0.70;;
29002;SDS011;16102;57.138;-2.118;2023-10-08T15:02:14;3.42;;;0.90;;
29002;SDS011;16102;57.138;-2.118;2023-10-08T15:04:41;3.10;;;0.50;;
29002;SDS011;16102;57.138;-2.118;2023-10-08T15:07:08;3.28;;;0.90;;
29002;SDS011;16102;57.138;-2.118;2023-10-08T15:09:37;3.17;;;1.05;;
29002;SDS011;16102;57.138;-2.118;2023-10-08T15:12:08;1.83;;;0.60;;
29002;SDS011;16102;57.138;-2.118;2023-10-08T15:14:35;0.65;;;0.50;;
29002;SDS011;16102;57.138;-2.118;2023-10-08T15:17:04;2.92;;;0.70;;
29002;SDS011;16102;57.138;-2.118;2023-10-08T15:19:31;2.97;;;0.82;;
29002;SDS011;16102;57.138;-2.118;2023-10-08T15:21:58;1.38;;;0.73;;
29002;SDS011;16102;57.138;-2.118;2023-10-08T15:24:25;4.20;;;0.60;;
29002;SDS011;16102;57.138;-2.118;2023-10-08T15:26:53;2.50;;;0.68;;
29002;SDS011;16102;57.138;-2.118;2023-10-08T15:29:21;2.67;;;0.70;;
29002;SDS011;16102;57.138;-2.118;2023-10-08T15:31:52;2.17;;;0.85;;
29002;SDS011;16102;57.138;-2.118;2023-10-08T15:34:21;1.83;;;1.00;;
29002;SDS011;16102;57.138;-2.118;2023-10-08T15:37:03;3.85;;;1.10;;
29002;SDS011;16102;57.138;-2.118;2023-10-08T15:39:30;3.63;;;1.20;;
29002;SDS011;16102;57.138;-2.118;2023-10-08T15:41:57;1.63;;;0.90;;
29002;SDS011;16102;57.138;-2.118;2023-10-08T15:44:24;0.60;;;0.50;;
29002;SDS011;16102;57.138;-2.118;2023-10-08T15:46:51;1.08;;;0.50;;
29002;SDS011;16102;57.138;-2.118;2023-10-08T15:49:18;2.35;;;1.27;;
29002;SDS011;16102;57.138;-2.118;2023-10-08T15:51:46;1.33;;;0.70;;
29002;SDS011;16102;57.138;-2.118;2023-10-08T15:54:13;42.30;;;26.63;;
29002;SDS011;16102;57.138;-2.118;2023-10-08T15:56:43;17.45;;;10.95;;
29002;SDS011;16102;57.138;-2.118;2023-10-08T15:59:09;15.63;;;10.65;;
29002;SDS011;16102;57.138;-2.118;2023-10-08T16:01:37;8.65;;;5.57;;
29002;SDS011;16102;57.138;-2.118;2023-10-08T16:04:04;8.25;;;4.85;;
29002;SDS011;16102;57.138;-2.118;2023-10-08T16:06:33;5.85;;;2.75;;
29002;SDS011;16102;57.138;-2.118;2023-10-08T16:09:00;2.75;;;2.17;;
29002;SDS011;16102;57.138;-2.118;2023-10-08T16:11:27;2.42;;;1.88;;
29002;SDS011;16102;57.138;-2.118;2023-10-08T16:13:55;3.03;;;2.33;;
29002;SDS011;16102;57.138;-2.118;2023-10-08T16:16:22;2.70;;;2.22;;
29002;SDS011;16102;57.138;-2.118;2023-10-08T16:18:49;2.85;;;2.30;;
29002;SDS011;16102;57.138;-2.118;2023-10-08T16:21:16;2.30;;;2.10;;
29002;SDS011;16102;57.138;-2.118;2023-10-08T16:23:47;3.58;;;2.03;;
29002;SDS011;16102;57.138;-2.118;2023-10-08T16:26:14;3.83;;;2.20;;
29002;SDS011;16102;57.138;-2.118;2023-10-08T16:28:41;2.53;;;1.73;;
29002;SDS011;16102;57.138;-2.118;2023-10-08T16:31:08;1.40;;;1.30;;
29002;SDS011;16102;57.138;-2.118;2023-10-08T16:33:35;2.53;;;1.92;;
29002;SDS011;16102;57.138;-2.118;2023-10-08T16:36:02;2.38;;;1.85;;
29002;SDS011;16102;57.138;-2.118;2023-10-08T16:38:33;5.60;;;4.63;;
29002;SDS011;16102;57.138;-2.118;2023-10-08T16:41:01;5.40;;;4.57;;
29002;SDS011;16102;57.138;-2.118;2023-10-08T16:43:28;5.35;;;4.07;;
29002;SDS011;16102;57.138;-2.118;2023-10-08T16:45:55;3.80;;;3.08;;
29002;SDS011;16102;57.138;-2.118;2023-10-08T16:48:25;4.38;;;3.33;;
29002;SDS011;16102;57.138;-2.118;2023-10-08T16:50:52;4.32;;;3.13;;
29002;SDS011;16102;57.138;-2.118;2023-10-08T16:53:19;4.85;;;3.75;;
29002;SDS011;16102;57.138;-2.118;2023-10-08T16:55:46;15.75;;;10.60;;
29002;SDS011;16102;57.138;-2.118;2023-10-08T16:58:13;5.80;;;4.05;;
29002;SDS011;16102;57.138;-2.118;2023-10-08T17:00:40;4.30;;;2.83;;
29002;SDS011;16102;57.138;-2.118;2023-10-08T17:03:07;3.50;;;2.90;;
29002;SDS011;16102;57.138;-2.118;2023-10-08T17:05:34;3.58;;;2.95;;
29002;SDS011;16102;57.138;-2.118;2023-10-08T17:08:01;3.33;;;2.35;;
29002;SDS011;16102;57.138;-2.118;2023-10-08T17:10:28;5.40;;;2.53;;
29002;SDS011;16102;57.138;-2.118;2023-10-08T17:12:56;3.47;;;1.80;;
29002;SDS011;16102;57.138;-2.118;2023-10-08T17:15:24;2.30;;;2.10;;
29002;SDS011;16102;57.138;-2.118;2023-10-08T17:17:51;2.08;;;1.38;;
29002;SDS011;16102;57.138;-2.118;2023-10-08T17:20:18;2.13;;;1.50;;
29002;SDS011;16102;57.138;-2.118;2023-10-08T17:22:49;3.58;;;2.22;;
29002;SDS011;16102;57.138;-2.118;2023-10-08T17:25:16;3.38;;;2.63;;
29002;SDS011;16102;57.138;-2.118;2023-10-08T17:27:43;3.97;;;2.40;;
29002;SDS011;16102;57.138;-2.118;2023-10-08T17:30:14;2.72;;;2.33;;
29002;SDS011;16102;57.138;-2.118;2023-10-08T17:32:50;2.08;;;1.58;;
29002;SDS011;16102;57.138;-2.118;2023-10-08T17:35:19;2.17;;;1.98;;
29002;SDS011;16102;57.138;-2.118;2023-10-08T17:37:46;1.55;;;1.45;;
29002;SDS011;16102;57.138;-2.118;2023-10-08T17:40:14;2.88;;;2.40;;
29002;SDS011;16102;57.138;-2.118;2023-10-08T17:42:41;2.53;;;2.33;;
29002;SDS011;16102;57.138;-2.118;2023-10-08T17:45:08;1.95;;;1.65;;
29002;SDS011;16102;57.138;-2.118;2023-10-08T17:47:41;2.30;;;2.10;;
29002;SDS011;16102;57.138;-2.118;2023-10-08T17:50:09;2.88;;;2.47;;
29002;SDS011;16102;57.138;-2.118;2023-10-08T17:52:36;4.60;;;3.55;;
29002;SDS011;16102;57.138;-2.118;2023-10-08T17:55:03;17.23;;;11.05;;
29002;SDS011;16102;57.138;-2.118;2023-10-08T17:57:33;11.27;;;6.63;;
29002;SDS011;16102;57.138;-2.118;2023-10-08T18:00:00;8.40;;;5.88;;
29002;SDS011;16102;57.138;-2.118;2023-10-08T18:02:40;7.93;;;4.85;;
29002;SDS011;16102;57.138;-2.118;2023-10-08T18:05:08;6.38;;;4.53;;
29002;SDS011;16102;57.138;-2.118;2023-10-08T18:07:45;5.70;;;4.53;;
29002;SDS011;16102;57.138;-2.118;2023-10-08T18:10:16;5.45;;;4.40;;
29002;SDS011;16102;57.138;-2.118;2023-10-08T18:12:46;12.38;;;9.93;;
29002;SDS011;16102;57.138;-2.118;2023-10-08T18:15:33;18.33;;;14.80;;
29002;SDS011;16102;57.138;-2.118;2023-10-08T18:18:02;8.77;;;6.80;;
29002;SDS011;16102;57.138;-2.118;2023-10-08T18:20:31;6.85;;;5.18;;
29002;SDS011;16102;57.138;-2.118;2023-10-08T18:23:02;6.18;;;4.22;;
29002;SDS011;16102;57.138;-2.118;2023-10-08T18:25:29;4.97;;;3.90;;
29002;SDS011;16102;57.138;-2.118;2023-10-08T18:27:57;5.63;;;3.70;;
29002;SDS011;16102;57.138;-2.118;2023-10-08T18:30:24;2.55;;;2.33;;
29002;SDS011;16102;57.138;-2.118;2023-10-08T18:32:54;4.22;;;3.25;;
29002;SDS011;16102;57.138;-2.118;2023-10-08T18:35:21;2.33;;;2.13;;
29002;SDS011;16102;57.138;-2.118;2023-10-08T18:37:49;2.42;;;1.73;;
29002;SDS011;16102;57.138;-2.118;2023-10-08T18:40:22;1.67;;;1.30;;
29002;SDS011;16102;57.138;-2.118;2023-10-08T18:42:50;2.28;;;1.85;;
29002;SDS011;16102;57.138;-2.118;2023-10-08T18:45:17;6.45;;;5.55;;
29002;SDS011;16102;57.138;-2.118;2023-10-08T18:47:44;2.30;;;2.10;;
29002;SDS011;16102;57.138;-2.118;2023-10-08T18:50:12;1.45;;;1.35;;
29002;SDS011;16102;57.138;-2.118;2023-10-08T18:52:43;2.50;;;1.95;;
29002;SDS011;16102;57.138;-2.118;2023-10-08T18:55:11;2.03;;;1.83;;
29002;SDS011;16102;57.138;-2.118;2023-10-08T18:57:39;1.90;;;1.33;;
29002;SDS011;16102;57.138;-2.118;2023-10-08T19:00:08;5.07;;;4.00;;
29002;SDS011;16102;57.138;-2.118;2023-10-08T19:02:37;47.25;;;31.20;;
29002;SDS011;16102;57.138;-2.118;2023-10-08T19:05:06;49.88;;;33.20;;
29002;SDS011;16102;57.138;-2.118;2023-10-08T19:07:35;47.28;;;31.70;;
29002;SDS011;16102;57.138;-2.118;2023-10-08T19:10:04;26.88;;;18.40;;
29002;SDS011;16102;57.138;-2.118;2023-10-08T19:12:32;22.75;;;14.68;;
29002;SDS011;16102;57.138;-2.118;2023-10-08T19:14:59;13.80;;;9.98;;
29002;SDS011;16102;57.138;-2.118;2023-10-08T19:17:26;10.90;;;7.60;;
29002;SDS011;16102;57.138;-2.118;2023-10-08T19:19:56;8.50;;;6.05;;
29002;SDS011;16102;57.138;-2.118;2023-10-08T19:22:23;6.35;;;4.55;;
29002;SDS011;16102;57.138;-2.118;2023-10-08T19:24:51;5.22;;;3.97;;
29002;SDS011;16102;57.138;-2.118;2023-10-08T19:27:19;2.97;;;2.30;;
29002;SDS011;16102;57.138;-2.118;2023-10-08T19:29:50;2.17;;;1.98;;
29002;SDS011;16102;57.138;-2.118;2023-10-08T19:32:18;2.38;;;1.83;;
29002;SDS011;16102;57.138;-2.118;2023-10-08T19:34:45;1.85;;;1.60;;
29002;SDS011;16102;57.138;-2.118;2023-10-08T19:37:12;3.08;;;2.10;;
29002;SDS011;16102;57.138;-2.118;2023-10-08T19:39:40;2.08;;;1.75;;
29002;SDS011;16102;57.138;-2.118;2023-10-08T19:42:07;3.60;;;1.88;;
29002;SDS011;16102;57.138;-2.118;2023-10-08T19:44:34;2.50;;;1.73;;
29002;SDS011;16102;57.138;-2.118;2023-10-08T19:47:01;3.10;;;1.70;;
29002;SDS011;16102;57.138;-2.118;2023-10-08T19:49:28;2.20;;;1.55;;
29002;SDS011;16102;57.138;-2.118;2023-10-08T19:51:55;1.75;;;1.50;;
29002;SDS011;16102;57.138;-2.118;2023-10-08T19:54:25;1.83;;;1.45;;
29002;SDS011;16102;57.138;-2.118;2023-10-08T19:56:52;1.30;;;1.20;;
29002;SDS011;16102;57.138;-2.118;2023-10-08T19:59:20;1.63;;;1.52;;
29002;SDS011;16102;57.138;-2.118;2023-10-08T20:01:47;2.40;;;2.00;;
29002;SDS011;16102;57.138;-2.118;2023-10-08T20:04:14;5.45;;;3.50;;
29002;SDS011;16102;57.138;-2.118;2023-10-08T20:06:42;2.95;;;2.28;;
29002;SDS011;16102;57.138;-2.118;2023-10-08T20:09:09;3.17;;;2.05;;
29002;SDS011;16102;57.138;-2.118;2023-10-08T20:11:37;3.75;;;2.10;;
29002;SDS011;16102;57.138;-2.118;2023-10-08T20:14:04;2.53;;;1.92;;
29002;SDS011;16102;57.138;-2.118;2023-10-08T20:16:34;1.33;;;1.20;;
29002;SDS011;16102;57.138;-2.118;2023-10-08T20:19:02;1.77;;;1.27;;
29002;SDS011;16102;57.138;-2.118;2023-10-08T20:21:31;2.63;;;1.65;;
29002;SDS011;16102;57.138;-2.118;2023-10-08T20:23:59;1.95;;;1.65;;
29002;SDS011;16102;57.138;-2.118;2023-10-08T20:26:26;2.42;;;2.22;;
29002;SDS011;16102;57.138;-2.118;2023-10-08T20:28:56;3.05;;;2.35;;
29002;SDS011;16102;57.138;-2.118;2023-10-08T20:31:24;2.75;;;2.20;;
29002;SDS011;16102;57.138;-2.118;2023-10-08T20:33:51;2.58;;;2.25;;
29002;SDS011;16102;57.138;-2.118;2023-10-08T20:36:19;3.38;;;2.10;;
29002;SDS011;16102;57.138;-2.118;2023-10-08T20:38:47;2.58;;;1.90;;
29002;SDS011;16102;57.138;-2.118;2023-10-08T20:41:16;2.92;;;2.30;;
29002;SDS011;16102;57.138;-2.118;2023-10-08T20:43:43;3.85;;;2.47;;
29002;SDS011;16102;57.138;-2.118;2023-10-08T20:46:14;2.97;;;2.10;;
29002;SDS011;16102;57.138;-2.118;2023-10-08T20:48:43;2.72;;;2.20;;
29002;SDS011;16102;57.138;-2.118;2023-10-08T20:51:11;2.30;;;2.10;;
29002;SDS011;16102;57.138;-2.118;2023-10-08T20:53:39;2.05;;;1.85;;
29002;SDS011;16102;57.138;-2.118;2023-10-08T20:56:06;3.33;;;2.88;;
29002;SDS011;16102;57.138;-2.118;2023-10-08T20:58:33;2.42;;;2.15;;
29002;SDS011;16102;57.138;-2.118;2023-10-08T21:01:00;1.77;;;1.60;;
29002;SDS011;16102;57.138;-2.118;2023-10-08T21:03:27;1.60;;;1.50;;
29002;SDS011;16102;57.138;-2.118;2023-10-08T21:05:54;1.20;;;1.10;;
29002;SDS011;16102;57.138;-2.118;2023-10-08T21:08:22;1.05;;;0.95;;
29002;SDS011;16102;57.138;-2.118;2023-10-08T21:10:49;0.93;;;0.93;;
29002;SDS011;16102;57.138;-2.118;2023-10-08T21:13:18;1.60;;;1.50;;
29002;SDS011;16102;57.138;-2.118;2023-10-08T21:15:45;1.33;;;1.05;;
29002;SDS011;16102;57.138;-2.118;2023-10-08T21:18:13;2.78;;;1.20;;
29002;SDS011;16102;57.138;-2.118;2023-10-08T21:20:40;1.10;;;1.00;;
29002;SDS011;16102;57.138;-2.118;2023-10-08T21:23:09;2.38;;;1.60;;
29002;SDS011;16102;57.138;-2.118;2023-10-08T21:25:37;0.80;;;0.80;;
29002;SDS011;16102;57.138;-2.118;2023-10-08T21:28:07;1.17;;;1.00;;
29002;SDS011;16102;57.138;-2.118;2023-10-08T21:30:35;1.27;;;1.17;;
29002;SDS011;16102;57.138;-2.118;2023-10-08T21:33:02;1.13;;;0.98;;
29002;SDS011;16102;57.138;-2.118;2023-10-08T21:35:36;1.17;;;1.08;;
29002;SDS011;16102;57.138;-2.118;2023-10-08T21:38:05;1.58;;;1.48;;
29002;SDS011;16102;57.138;-2.118;2023-10-08T21:40:35;1.00;;;0.90;;
29002;SDS011;16102;57.138;-2.118;2023-10-08T21:43:03;2.15;;;1.40;;
29002;SDS011;16102;57.138;-2.118;2023-10-08T21:45:30;3.03;;;2.58;;
29002;SDS011;16102;57.138;-2.118;2023-10-08T21:47:58;1.70;;;1.60;;
29002;SDS011;16102;57.138;-2.118;2023-10-08T21:50:27;2.00;;;1.80;;
29002;SDS011;16102;57.138;-2.118;2023-10-08T21:52:54;7.00;;;3.95;;
29002;SDS011;16102;57.138;-2.118;2023-10-08T21:55:23;1.48;;;1.00;;
29002;SDS011;16102;57.138;-2.118;2023-10-08T21:57:51;1.42;;;0.90;;
29002;SDS011;16102;57.138;-2.118;2023-10-08T22:00:20;1.10;;;0.93;;
29002;SDS011;16102;57.138;-2.118;2023-10-08T22:02:50;1.88;;;1.52;;
29002;SDS011;16102;57.138;-2.118;2023-10-08T22:05:19;1.23;;;0.80;;
29002;SDS011;16102;57.138;-2.118;2023-10-08T22:07:51;0.40;;;0.35;;
29002;SDS011;16102;57.138;-2.118;2023-10-08T22:10:19;1.17;;;0.85;;
29002;SDS011;16102;57.138;-2.118;2023-10-08T22:12:48;0.70;;;0.50;;
29002;SDS011;16102;57.138;-2.118;2023-10-08T22:15:17;0.80;;;0.50;;
29002;SDS011;16102;57.138;-2.118;2023-10-08T22:17:52;0.60;;;0.60;;
29002;SDS011;16102;57.138;-2.118;2023-10-08T22:20:19;0.70;;;0.70;;
29002;SDS011;16102;57.138;-2.118;2023-10-08T22:23:06;1.87;;;0.77;;
29002;SDS011;16102;57.138;-2.118;2023-10-08T22:25:35;0.88;;;0.80;;
29002;SDS011;16102;57.138;-2.118;2023-10-08T22:28:07;1.20;;;1.10;;
29002;SDS011;16102;57.138;-2.118;2023-10-08T22:30:40;0.98;;;0.98;;
29002;SDS011;16102;57.138;-2.118;2023-10-08T22:33:09;0.70;;;0.70;;
29002;SDS011;16102;57.138;-2.118;2023-10-08T22:35:38;1.63;;;0.90;;
29002;SDS011;16102;57.138;-2.118;2023-10-08T22:38:10;0.90;;;0.73;;
29002;SDS011;16102;57.138;-2.118;2023-10-08T22:40:43;1.08;;;0.98;;
29002;SDS011;16102;57.138;-2.118;2023-10-08T22:43:26;1.10;;;1.00;;
29002;SDS011;16102;57.138;-2.118;2023-10-08T22:46:03;0.80;;;0.80;;
29002;SDS011;16102;57.138;-2.118;2023-10-08T22:48:33;1.30;;;1.20;;
29002;SDS011;16102;57.138;-2.118;2023-10-08T22:51:11;1.05;;;1.05;;
29002;SDS011;16102;57.138;-2.118;2023-10-08T22:53:50;0.65;;;0.60;;
29002;SDS011;16102;57.138;-2.118;2023-10-08T22:56:18;0.77;;;0.77;;
29002;SDS011;16102;57.138;-2.118;2023-10-08T22:58:45;0.88;;;0.88;;
29002;SDS011;16102;57.138;-2.118;2023-10-08T23:01:13;0.75;;;0.75;;
29002;SDS011;16102;57.138;-2.118;2023-10-08T23:03:45;0.90;;;0.80;;
29002;SDS011;16102;57.138;-2.118;2023-10-08T23:06:17;1.08;;;0.88;;
29002;SDS011;16102;57.138;-2.118;2023-10-08T23:08:46;1.75;;;1.00;;
29002;SDS011;16102;57.138;-2.118;2023-10-08T23:11:14;1.33;;;0.90;;
29002;SDS011;16102;57.138;-2.118;2023-10-08T23:13:42;0.93;;;0.93;;
29002;SDS011;16102;57.138;-2.118;2023-10-08T23:16:10;0.77;;;0.77;;
29002;SDS011;16102;57.138;-2.118;2023-10-08T23:18:42;0.75;;;0.75;;
29002;SDS011;16102;57.138;-2.118;2023-10-08T23:21:12;0.82;;;0.80;;
29002;SDS011;16102;57.138;-2.118;2023-10-08T23:23:42;0.70;;;0.70;;
29002;SDS011;16102;57.138;-2.118;2023-10-08T23:26:13;0.60;;;0.60;;
29002;SDS011;16102;57.138;-2.118;2023-10-08T23:28:43;0.70;;;0.70;;
29002;SDS011;16102;57.138;-2.118;2023-10-08T23:31:11;1.27;;;0.80;;
29002;SDS011;16102;57.138;-2.118;2023-10-08T23:33:40;0.80;;;0.80;;
29002;SDS011;16102;57.138;-2.118;2023-10-08T23:36:14;0.60;;;0.60;;
29002;SDS011;16102;57.138;-2.118;2023-10-08T23:38:43;0.60;;;0.60;;
29002;SDS011;16102;57.138;-2.118;2023-10-08T23:41:19;1.75;;;0.80;;
29002;SDS011;16102;57.138;-2.118;2023-10-08T23:43:59;0.85;;;0.85;;
29002;SDS011;16102;57.138;-2.118;2023-10-08T23:46:36;0.60;;;0.60;;
29002;SDS011;16102;57.138;-2.118;2023-10-08T23:49:09;0.98;;;0.75;;
29002;SDS011;16102;57.138;-2.118;2023-10-08T23:51:43;1.10;;;0.98;;
29002;SDS011;16102;57.138;-2.118;2023-10-08T23:54:18;0.85;;;0.82;;
29002;SDS011;16102;57.138;-2.118;2023-10-08T23:56:54;1.00;;;1.00;;
29002;SDS011;16102;57.138;-2.118;2023-10-08T23:59:26;0.80;;;0.73;;
